sensor_id;sensor_type;location;lat;lon;timestamp;pressure;altitude;pressure_sealevel;temperature;humidity
74975;BME280;68459;50.836;19.138;2023-03-13T00:01:47;98031.97;;;2.87;57.74
74975;BME280;68459;50.836;19.138;2023-03-13T00:04:52;98036.47;;;2.86;57.95
74975;BME280;68459;50.836;19.138;2023-03-13T00:07:56;98034.44;;;2.89;58.60
74975;BME280;68459;50.836;19.138;2023-03-13T00:11:02;98024.44;;;2.91;58.01
74975;BME280;68459;50.836;19.138;2023-03-13T00:14:07;98015.84;;;2.95;58.25
74975;BME280;68459;50.836;19.138;2023-03-13T00:17:13;98004.63;;;3.00;58.07
74975;BME280;68459;50.836;19.138;2023-03-13T00:20:16;98002.22;;;3.05;57.96
74975;BME280;68459;50.836;19.138;2023-03-13T00:23:21;98000.25;;;3.13;57.93
74975;BME280;68459;50.836;19.138;2023-03-13T00:26:25;97990.66;;;3.19;57.56
74975;BME280;68459;50.836;19.138;2023-03-13T00:29:32;97987.00;;;3.27;58.14
74975;BME280;68459;50.836;19.138;2023-03-13T00:32:41;97985.44;;;3.32;57.68
74975;BME280;68459;50.836;19.138;2023-03-13T00:35:45;97984.19;;;3.35;57.50
74975;BME280;68459;50.836;19.138;2023-03-13T00:38:51;97977.47;;;3.39;57.87
74975;BME280;68459;50.836;19.138;2023-03-13T00:41:56;97972.56;;;3.42;57.43
74975;BME280;68459;50.836;19.138;2023-03-13T00:45:02;97958.44;;;3.48;57.59
74975;BME280;68459;50.836;19.138;2023-03-13T00:48:08;97957.06;;;3.52;57.40
74975;BME280;68459;50.836;19.138;2023-03-13T00:51:12;97966.31;;;3.56;57.50
74975;BME280;68459;50.836;19.138;2023-03-13T00:54:17;97956.88;;;3.61;57.41
74975;BME280;68459;50.836;19.138;2023-03-13T00:57:21;97967.78;;;3.66;57.89
74975;BME280;68459;50.836;19.138;2023-03-13T01:00:25;97961.06;;;3.70;57.53
74975;BME280;68459;50.836;19.138;2023-03-13T01:03:30;97957.59;;;3.76;57.07
74975;BME280;68459;50.836;19.138;2023-03-13T01:06:37;97963.16;;;3.81;57.22
74975;BME280;68459;50.836;19.138;2023-03-13T01:09:43;97948.41;;;3.85;57.04
74975;BME280;68459;50.836;19.138;2023-03-13T01:12:47;97943.28;;;3.90;57.69
74975;BME280;68459;50.836;19.138;2023-03-13T01:15:51;97948.22;;;3.93;57.65
74975;BME280;68459;50.836;19.138;2023-03-13T01:18:59;97937.56;;;4.00;57.45
74975;BME280;68459;50.836;19.138;2023-03-13T01:22:05;97939.03;;;4.02;57.62
74975;BME280;68459;50.836;19.138;2023-03-13T01:25:12;97946.44;;;4.07;57.34
74975;BME280;68459;50.836;19.138;2023-03-13T01:28:16;97952.41;;;4.09;57.89
74975;BME280;68459;50.836;19.138;2023-03-13T01:31:21;97939.50;;;4.12;57.24
74975;BME280;68459;50.836;19.138;2023-03-13T01:34:28;97933.53;;;4.17;57.83
74975;BME280;68459;50.836;19.138;2023-03-13T01:37:33;97941.97;;;4.20;58.17
74975;BME280;68459;50.836;19.138;2023-03-13T01:40:41;97947.75;;;4.24;59.18
74975;BME280;68459;50.836;19.138;2023-03-13T01:43:47;97947.31;;;4.27;57.76
74975;BME280;68459;50.836;19.138;2023-03-13T01:46:51;97951.44;;;4.29;58.74
74975;BME280;68459;50.836;19.138;2023-03-13T01:49:57;97949.00;;;4.35;59.19
74975;BME280;68459;50.836;19.138;2023-03-13T01:53:15;97945.94;;;4.38;59.00
74975;BME280;68459;50.836;19.138;2023-03-13T01:56:23;97945.50;;;4.41;59.33
74975;BME280;68459;50.836;19.138;2023-03-13T01:59:36;97951.06;;;4.46;59.69
74975;BME280;68459;50.836;19.138;2023-03-13T02:02:48;97962.19;;;4.49;59.79
74975;BME280;68459;50.836;19.138;2023-03-13T02:05:56;97957.22;;;4.53;59.76
74975;BME280;68459;50.836;19.138;2023-03-13T02:09:06;97965.88;;;4.55;59.90
74975;BME280;68459;50.836;19.138;2023-03-13T02:12:17;97969.16;;;4.57;60.64
74975;BME280;68459;50.836;19.138;2023-03-13T02:15:27;97977.41;;;4.62;61.14
74975;BME280;68459;50.836;19.138;2023-03-13T02:18:35;97967.16;;;4.65;61.44
74975;BME280;68459;50.836;19.138;2023-03-13T02:21:47;97969.38;;;4.69;61.54
74975;BME280;68459;50.836;19.138;2023-03-13T02:25:02;97971.03;;;4.70;61.10
74975;BME280;68459;50.836;19.138;2023-03-13T02:28:18;97968.38;;;4.70;61.67
74975;BME280;68459;50.836;19.138;2023-03-13T02:31:25;97984.81;;;4.73;61.60
74975;BME280;68459;50.836;19.138;2023-03-13T02:34:32;97973.31;;;4.73;61.99
74975;BME280;68459;50.836;19.138;2023-03-13T02:37:41;97982.56;;;4.77;61.74
74975;BME280;68459;50.836;19.138;2023-03-13T02:40:52;97987.72;;;4.78;62.64
74975;BME280;68459;50.836;19.138;2023-03-13T02:44:00;97979.28;;;4.81;62.26
74975;BME280;68459;50.836;19.138;2023-03-13T02:47:05;97987.28;;;4.81;61.84
74975;BME280;68459;50.836;19.138;2023-03-13T02:50:11;98002.91;;;4.84;63.74
74975;BME280;68459;50.836;19.138;2023-03-13T02:53:17;97992.84;;;4.86;62.34
74975;BME280;68459;50.836;19.138;2023-03-13T02:56:24;97990.38;;;4.85;62.44
74975;BME280;68459;50.836;19.138;2023-03-13T02:59:33;97989.16;;;4.87;62.33
74975;BME280;68459;50.836;19.138;2023-03-13T03:02:37;97986.09;;;4.90;62.31
74975;BME280;68459;50.836;19.138;2023-03-13T03:05:41;97986.72;;;4.92;63.28
74975;BME280;68459;50.836;19.138;2023-03-13T03:08:45;97987.31;;;4.94;63.29
74975;BME280;68459;50.836;19.138;2023-03-13T03:11:49;97991.63;;;4.95;63.24
74975;BME280;68459;50.836;19.138;2023-03-13T03:14:55;97995.94;;;4.96;63.57
74975;BME280;68459;50.836;19.138;2023-03-13T03:17:59;97994.72;;;4.99;63.18
74975;BME280;68459;50.836;19.138;2023-03-13T03:21:04;97993.88;;;4.98;62.69
74975;BME280;68459;50.836;19.138;2023-03-13T03:24:12;98000.28;;;5.04;63.66
74975;BME280;68459;50.836;19.138;2023-03-13T03:27:16;97993.69;;;5.07;64.46
74975;BME280;68459;50.836;19.138;2023-03-13T03:30:28;98012.59;;;5.12;65.00
74975;BME280;68459;50.836;19.138;2023-03-13T03:33:32;97992.03;;;5.12;63.95
74975;BME280;68459;50.836;19.138;2023-03-13T03:36:39;98004.19;;;5.15;64.90
74975;BME280;68459;50.836;19.138;2023-03-13T03:39:43;97995.75;;;5.18;64.44
74975;BME280;68459;50.836;19.138;2023-03-13T03:42:48;98000.50;;;5.16;64.66
74975;BME280;68459;50.836;19.138;2023-03-13T03:45:53;97992.25;;;5.17;64.73
74975;BME280;68459;50.836;19.138;2023-03-13T03:48:58;97997.81;;;5.16;64.54
74975;BME280;68459;50.836;19.138;2023-03-13T03:52:01;97998.44;;;5.18;65.22
74975;BME280;68459;50.836;19.138;2023-03-13T03:55:10;97992.66;;;5.21;65.68
74975;BME280;68459;50.836;19.138;2023-03-13T03:58:14;97999.66;;;5.22;65.12
74975;BME280;68459;50.836;19.138;2023-03-13T04:01:49;98000.66;;;5.21;64.97
74975;BME280;68459;50.836;19.138;2023-03-13T04:04:56;98002.13;;;5.23;65.92
74975;BME280;68459;50.836;19.138;2023-03-13T04:08:06;98002.13;;;5.23;65.18
74975;BME280;68459;50.836;19.138;2023-03-13T04:11:11;98012.00;;;5.23;65.28
74975;BME280;68459;50.836;19.138;2023-03-13T04:14:20;98009.94;;;5.25;65.61
74975;BME280;68459;50.836;19.138;2023-03-13T04:17:26;98005.41;;;5.25;66.06
74975;BME280;68459;50.836;19.138;2023-03-13T04:20:30;98000.50;;;5.29;66.10
74975;BME280;68459;50.836;19.138;2023-03-13T04:23:34;98010.16;;;5.30;66.22
74975;BME280;68459;50.836;19.138;2023-03-13T04:26:38;98009.94;;;5.31;65.76
74975;BME280;68459;50.836;19.138;2023-03-13T04:29:42;98000.09;;;5.32;66.11
74975;BME280;68459;50.836;19.138;2023-03-13T04:33:03;98009.53;;;5.28;66.50
74975;BME280;68459;50.836;19.138;2023-03-13T04:36:22;97994.13;;;5.30;66.85
74975;BME280;68459;50.836;19.138;2023-03-13T04:39:47;97986.09;;;5.30;67.11
74975;BME280;68459;50.836;19.138;2023-03-13T04:43:17;97988.75;;;5.30;66.95
74975;BME280;68459;50.836;19.138;2023-03-13T04:46:47;97992.06;;;5.32;67.46
74975;BME280;68459;50.836;19.138;2023-03-13T04:50:15;97989.59;;;5.30;67.60
74975;BME280;68459;50.836;19.138;2023-03-13T04:53:26;97984.25;;;5.30;68.02
74975;BME280;68459;50.836;19.138;2023-03-13T04:56:48;97990.19;;;5.26;67.08
74975;BME280;68459;50.836;19.138;2023-03-13T04:59:55;97981.97;;;5.27;69.03
74975;BME280;68459;50.836;19.138;2023-03-13T05:03:14;97971.06;;;5.29;68.22
74975;BME280;68459;50.836;19.138;2023-03-13T05:06:33;97969.63;;;5.33;68.44
74975;BME280;68459;50.836;19.138;2023-03-13T05:09:52;97969.03;;;5.31;68.55
74975;BME280;68459;50.836;19.138;2023-03-13T05:13:15;97964.06;;;5.34;68.02
74975;BME280;68459;50.836;19.138;2023-03-13T05:16:38;97961.19;;;5.36;69.00
74975;BME280;68459;50.836;19.138;2023-03-13T05:20:01;97958.50;;;5.36;69.23
74975;BME280;68459;50.836;19.138;2023-03-13T05:23:41;97961.38;;;5.34;69.05
74975;BME280;68459;50.836;19.138;2023-03-13T05:27:02;97947.81;;;5.36;68.86
74975;BME280;68459;50.836;19.138;2023-03-13T05:30:12;97946.16;;;5.35;70.13
74975;BME280;68459;50.836;19.138;2023-03-13T05:33:52;97953.16;;;5.36;69.80
74975;BME280;68459;50.836;19.138;2023-03-13T05:37:24;97957.28;;;5.38;69.52
74975;BME280;68459;50.836;19.138;2023-03-13T05:41:03;97953.56;;;5.40;70.36
74975;BME280;68459;50.836;19.138;2023-03-13T05:44:30;97950.50;;;5.43;69.83
74975;BME280;68459;50.836;19.138;2023-03-13T05:47:49;97948.44;;;5.45;69.71
74975;BME280;68459;50.836;19.138;2023-03-13T05:51:10;97947.38;;;5.52;69.86
74975;BME280;68459;50.836;19.138;2023-03-13T05:54:40;97953.97;;;5.56;68.85
74975;BME280;68459;50.836;19.138;2023-03-13T05:58:20;97945.09;;;5.62;69.50
74975;BME280;68459;50.836;19.138;2023-03-13T06:01:43;97939.31;;;5.65;69.22
74975;BME280;68459;50.836;19.138;2023-03-13T06:05:01;97943.84;;;5.71;69.59
74975;BME280;68459;50.836;19.138;2023-03-13T06:08:06;97948.75;;;5.74;69.18
74975;BME280;68459;50.836;19.138;2023-03-13T06:11:10;97936.63;;;5.79;69.79
74975;BME280;68459;50.836;19.138;2023-03-13T06:14:16;97932.06;;;5.86;69.28
74975;BME280;68459;50.836;19.138;2023-03-13T06:17:39;97952.03;;;5.90;69.81
74975;BME280;68459;50.836;19.138;2023-03-13T06:20:44;97945.03;;;5.95;70.08
74975;BME280;68459;50.836;19.138;2023-03-13T06:23:47;97933.47;;;6.01;69.32
74975;BME280;68459;50.836;19.138;2023-03-13T06:26:52;97944.78;;;6.10;68.99
74975;BME280;68459;50.836;19.138;2023-03-13T06:29:57;97935.06;;;6.16;68.60
74975;BME280;68459;50.836;19.138;2023-03-13T06:33:01;97928.19;;;6.26;69.16
74975;BME280;68459;50.836;19.138;2023-03-13T06:36:05;97942.78;;;6.37;68.98
74975;BME280;68459;50.836;19.138;2023-03-13T06:39:11;97937.78;;;6.47;68.61
74975;BME280;68459;50.836;19.138;2023-03-13T06:42:15;97932.97;;;6.56;68.42
74975;BME280;68459;50.836;19.138;2023-03-13T06:45:20;97927.38;;;6.64;67.88
74975;BME280;68459;50.836;19.138;2023-03-13T06:48:24;97936.38;;;6.76;67.35
74975;BME280;68459;50.836;19.138;2023-03-13T06:51:29;97940.00;;;6.82;67.85
74975;BME280;68459;50.836;19.138;2023-03-13T06:54:32;97937.91;;;6.90;67.20
74975;BME280;68459;50.836;19.138;2023-03-13T06:57:37;97930.63;;;6.97;67.58
74975;BME280;68459;50.836;19.138;2023-03-13T07:00:42;97943.16;;;7.03;67.56
74975;BME280;68459;50.836;19.138;2023-03-13T07:03:47;97936.78;;;7.04;66.64
74975;BME280;68459;50.836;19.138;2023-03-13T07:06:51;97934.66;;;7.06;66.98
74975;BME280;68459;50.836;19.138;2023-03-13T07:09:55;97940.03;;;7.06;66.73
74975;BME280;68459;50.836;19.138;2023-03-13T07:12:59;97936.78;;;7.04;66.75
74975;BME280;68459;50.836;19.138;2023-03-13T07:16:06;97929.16;;;7.01;67.28
74975;BME280;68459;50.836;19.138;2023-03-13T07:19:11;97928.13;;;7.02;66.80
74975;BME280;68459;50.836;19.138;2023-03-13T07:22:16;97928.25;;;7.07;67.12
74975;BME280;68459;50.836;19.138;2023-03-13T07:25:20;97914.00;;;7.13;66.72
74975;BME280;68459;50.836;19.138;2023-03-13T07:28:25;97911.50;;;7.19;66.53
74975;BME280;68459;50.836;19.138;2023-03-13T07:31:31;97908.94;;;7.24;66.43
74975;BME280;68459;50.836;19.138;2023-03-13T07:34:36;97896.88;;;7.33;66.73
74975;BME280;68459;50.836;19.138;2023-03-13T07:37:40;97904.22;;;7.44;66.29
74975;BME280;68459;50.836;19.138;2023-03-13T07:40:48;97884.69;;;7.55;66.47
74975;BME280;68459;50.836;19.138;2023-03-13T07:43:52;97879.25;;;7.62;66.22
74975;BME280;68459;50.836;19.138;2023-03-13T07:46:59;97889.81;;;7.75;65.45
74975;BME280;68459;50.836;19.138;2023-03-13T07:50:04;97895.13;;;7.81;65.72
74975;BME280;68459;50.836;19.138;2023-03-13T07:53:10;97890.66;;;7.75;65.82
74975;BME280;68459;50.836;19.138;2023-03-13T07:56:18;97896.94;;;7.69;65.84
74975;BME280;68459;50.836;19.138;2023-03-13T07:59:24;97876.34;;;7.63;65.41
74975;BME280;68459;50.836;19.138;2023-03-13T08:02:29;97893.34;;;7.75;65.87
74975;BME280;68459;50.836;19.138;2023-03-13T08:05:33;97884.53;;;7.86;65.81
74975;BME280;68459;50.836;19.138;2023-03-13T08:08:37;97887.41;;;8.03;64.90
74975;BME280;68459;50.836;19.138;2023-03-13T08:11:42;97885.53;;;8.22;65.15
74975;BME280;68459;50.836;19.138;2023-03-13T08:14:46;97862.63;;;8.38;64.33
74975;BME280;68459;50.836;19.138;2023-03-13T08:17:51;97880.41;;;8.50;63.77
74975;BME280;68459;50.836;19.138;2023-03-13T08:20:59;97858.19;;;8.55;63.79
74975;BME280;68459;50.836;19.138;2023-03-13T08:24:07;97862.69;;;8.73;63.21
74975;BME280;68459;50.836;19.138;2023-03-13T08:27:12;97850.31;;;8.83;63.46
74975;BME280;68459;50.836;19.138;2023-03-13T08:30:17;97842.84;;;8.97;62.69
74975;BME280;68459;50.836;19.138;2023-03-13T08:33:22;97838.72;;;9.06;62.73
74975;BME280;68459;50.836;19.138;2023-03-13T08:36:32;97824.81;;;9.21;62.52
74975;BME280;68459;50.836;19.138;2023-03-13T08:39:36;97825.16;;;9.36;62.29
74975;BME280;68459;50.836;19.138;2023-03-13T08:42:41;97818.00;;;9.53;61.64
74975;BME280;68459;50.836;19.138;2023-03-13T08:45:44;97810.00;;;9.70;61.40
74975;BME280;68459;50.836;19.138;2023-03-13T08:48:50;97810.16;;;9.92;60.50
74975;BME280;68459;50.836;19.138;2023-03-13T08:51:55;97807.16;;;10.05;60.32
74975;BME280;68459;50.836;19.138;2023-03-13T08:54:59;97804.78;;;10.20;60.31
74975;BME280;68459;50.836;19.138;2023-03-13T08:58:02;97799.91;;;10.34;59.94
74975;BME280;68459;50.836;19.138;2023-03-13T09:01:08;97804.75;;;10.49;59.46
74975;BME280;68459;50.836;19.138;2023-03-13T09:04:15;97798.03;;;10.68;59.43
74975;BME280;68459;50.836;19.138;2023-03-13T09:07:19;97804.59;;;10.89;58.23
74975;BME280;68459;50.836;19.138;2023-03-13T09:10:22;97794.50;;;11.01;58.71
74975;BME280;68459;50.836;19.138;2023-03-13T09:13:28;97797.69;;;11.15;57.29
74975;BME280;68459;50.836;19.138;2023-03-13T09:16:34;97809.78;;;11.12;58.27
74975;BME280;68459;50.836;19.138;2023-03-13T09:19:39;97791.97;;;11.11;57.76
74975;BME280;68459;50.836;19.138;2023-03-13T09:23:00;97787.38;;;11.12;58.11
74975;BME280;68459;50.836;19.138;2023-03-13T09:26:04;97785.06;;;11.20;57.15
74975;BME280;68459;50.836;19.138;2023-03-13T09:29:08;97788.16;;;11.29;57.14
74975;BME280;68459;50.836;19.138;2023-03-13T09:32:13;97807.44;;;11.37;56.80
74975;BME280;68459;50.836;19.138;2023-03-13T09:35:19;97802.16;;;11.48;55.99
74975;BME280;68459;50.836;19.138;2023-03-13T09:38:23;97787.72;;;11.59;56.56
74975;BME280;68459;50.836;19.138;2023-03-13T09:41:33;97779.50;;;11.70;56.37
74975;BME280;68459;50.836;19.138;2023-03-13T09:44:43;97791.78;;;11.78;55.96
74975;BME280;68459;50.836;19.138;2023-03-13T09:47:54;97787.44;;;11.77;55.78
74975;BME280;68459;50.836;19.138;2023-03-13T09:51:13;97782.28;;;11.75;55.39
74975;BME280;68459;50.836;19.138;2023-03-13T09:54:24;97793.53;;;11.89;55.41
74975;BME280;68459;50.836;19.138;2023-03-13T09:57:33;97792.56;;;12.00;55.05
74975;BME280;68459;50.836;19.138;2023-03-13T10:00:43;97765.59;;;12.05;54.94
74975;BME280;68459;50.836;19.138;2023-03-13T10:03:59;97763.56;;;12.18;54.71
74975;BME280;68459;50.836;19.138;2023-03-13T10:07:11;97752.94;;;12.38;53.88
74975;BME280;68459;50.836;19.138;2023-03-13T10:10:18;97767.00;;;12.40;53.57
74975;BME280;68459;50.836;19.138;2023-03-13T10:13:34;97759.00;;;12.55;53.10
74975;BME280;68459;50.836;19.138;2023-03-13T10:16:48;97736.69;;;12.70;52.85
74975;BME280;68459;50.836;19.138;2023-03-13T10:20:00;97770.84;;;12.76;52.21
74975;BME280;68459;50.836;19.138;2023-03-13T10:23:23;97735.31;;;12.67;52.34
74975;BME280;68459;50.836;19.138;2023-03-13T10:26:34;97742.59;;;12.67;52.40
74975;BME280;68459;50.836;19.138;2023-03-13T10:29:39;97721.88;;;12.77;52.90
74975;BME280;68459;50.836;19.138;2023-03-13T10:32:43;97728.72;;;12.90;52.41
74975;BME280;68459;50.836;19.138;2023-03-13T10:35:59;97703.09;;;13.08;51.26
74975;BME280;68459;50.836;19.138;2023-03-13T10:39:14;97718.66;;;13.28;51.01
74975;BME280;68459;50.836;19.138;2023-03-13T10:42:26;97711.09;;;13.30;50.55
74975;BME280;68459;50.836;19.138;2023-03-13T10:45:35;97685.94;;;13.39;51.17
74975;BME280;68459;50.836;19.138;2023-03-13T10:48:40;97686.53;;;13.57;51.13
74975;BME280;68459;50.836;19.138;2023-03-13T10:51:46;97691.41;;;13.60;49.91
74975;BME280;68459;50.836;19.138;2023-03-13T10:54:58;97706.50;;;13.35;50.60
74975;BME280;68459;50.836;19.138;2023-03-13T10:58:04;97705.78;;;13.08;50.63
74975;BME280;68459;50.836;19.138;2023-03-13T11:01:17;97692.16;;;12.93;51.20
74975;BME280;68459;50.836;19.138;2023-03-13T11:04:31;97672.13;;;12.89;50.70
74975;BME280;68459;50.836;19.138;2023-03-13T11:07:37;97675.97;;;12.98;51.43
74975;BME280;68459;50.836;19.138;2023-03-13T11:10:53;97676.66;;;13.25;50.32
74975;BME280;68459;50.836;19.138;2023-03-13T11:14:11;97661.78;;;13.33;50.05
74975;BME280;68459;50.836;19.138;2023-03-13T11:17:23;97648.53;;;13.31;50.03
74975;BME280;68459;50.836;19.138;2023-03-13T11:20:36;97662.09;;;13.41;49.42
74975;BME280;68459;50.836;19.138;2023-03-13T11:23:44;97626.31;;;13.34;49.52
74975;BME280;68459;50.836;19.138;2023-03-13T11:27:05;97625.50;;;13.29;49.41
74975;BME280;68459;50.836;19.138;2023-03-13T11:30:33;97611.16;;;13.28;49.55
74975;BME280;68459;50.836;19.138;2023-03-13T11:33:53;97600.56;;;13.32;49.77
74975;BME280;68459;50.836;19.138;2023-03-13T11:37:09;97594.09;;;13.33;49.55
74975;BME280;68459;50.836;19.138;2023-03-13T11:40:19;97603.03;;;13.33;49.41
74975;BME280;68459;50.836;19.138;2023-03-13T11:44:00;97597.34;;;13.30;49.38
74975;BME280;68459;50.836;19.138;2023-03-13T11:47:35;97576.75;;;13.34;49.39
74975;BME280;68459;50.836;19.138;2023-03-13T11:50:51;97591.66;;;13.36;49.18
74975;BME280;68459;50.836;19.138;2023-03-13T11:57:56;97584.25;;;13.11;49.26
74975;BME280;68459;50.836;19.138;2023-03-13T12:01:17;97619.38;;;12.96;49.42
74975;BME280;68459;50.836;19.138;2023-03-13T12:04:25;97609.25;;;12.71;50.17
74975;BME280;68459;50.836;19.138;2023-03-13T12:07:36;97609.47;;;12.60;49.98
74975;BME280;68459;50.836;19.138;2023-03-13T12:10:46;97583.19;;;12.50;51.08
74975;BME280;68459;50.836;19.138;2023-03-13T12:13:57;97602.59;;;12.37;51.39
74975;BME280;68459;50.836;19.138;2023-03-13T12:17:09;97572.53;;;12.33;51.10
74975;BME280;68459;50.836;19.138;2023-03-13T12:20:22;97584.63;;;12.26;51.23
74975;BME280;68459;50.836;19.138;2023-03-13T12:23:38;97573.19;;;12.08;52.93
74975;BME280;68459;50.836;19.138;2023-03-13T12:26:50;97578.47;;;11.93;53.63
74975;BME280;68459;50.836;19.138;2023-03-13T12:30:00;97620.44;;;11.74;53.73
74975;BME280;68459;50.836;19.138;2023-03-13T12:33:16;97569.25;;;11.57;54.46
74975;BME280;68459;50.836;19.138;2023-03-13T12:36:28;97562.38;;;11.45;55.48
74975;BME280;68459;50.836;19.138;2023-03-13T12:39:42;97551.53;;;11.39;55.87
74975;BME280;68459;50.836;19.138;2023-03-13T12:42:56;97566.81;;;11.29;56.46
74975;BME280;68459;50.836;19.138;2023-03-13T12:46:25;97586.88;;;11.11;57.44
74975;BME280;68459;50.836;19.138;2023-03-13T12:50:11;97586.38;;;10.92;57.65
74975;BME280;68459;50.836;19.138;2023-03-13T12:53:41;97566.75;;;10.75;58.28
74975;BME280;68459;50.836;19.138;2023-03-13T12:57:13;97541.56;;;10.64;59.54
74975;BME280;68459;50.836;19.138;2023-03-13T13:00:29;97549.66;;;10.64;59.07
74975;BME280;68459;50.836;19.138;2023-03-13T13:03:42;97557.34;;;10.78;58.26
74975;BME280;68459;50.836;19.138;2023-03-13T13:07:00;97521.91;;;10.91;58.70
74975;BME280;68459;50.836;19.138;2023-03-13T13:10:17;97545.25;;;11.07;58.22
74975;BME280;68459;50.836;19.138;2023-03-13T13:13:30;97536.25;;;11.23;58.08
74975;BME280;68459;50.836;19.138;2023-03-13T13:16:33;97526.53;;;11.22;58.45
74975;BME280;68459;50.836;19.138;2023-03-13T13:19:44;97516.28;;;11.24;57.49
74975;BME280;68459;50.836;19.138;2023-03-13T13:22:51;97506.91;;;11.32;57.02
74975;BME280;68459;50.836;19.138;2023-03-13T13:29:54;97528.28;;;11.38;57.95
74975;BME280;68459;50.836;19.138;2023-03-13T13:36:42;97527.28;;;11.45;57.18
74975;BME280;68459;50.836;19.138;2023-03-13T13:39:49;97511.59;;;11.41;57.11
74975;BME280;68459;50.836;19.138;2023-03-13T13:42:55;97489.38;;;11.34;56.90
74975;BME280;68459;50.836;19.138;2023-03-13T13:46:02;97521.69;;;11.24;56.87
74975;BME280;68459;50.836;19.138;2023-03-13T13:49:13;97500.81;;;11.15;57.39
74975;BME280;68459;50.836;19.138;2023-03-13T13:52:38;97528.06;;;11.13;56.51
74975;BME280;68459;50.836;19.138;2023-03-13T13:55:44;97508.84;;;11.10;56.15
74975;BME280;68459;50.836;19.138;2023-03-13T13:58:47;97512.88;;;11.07;55.37
74975;BME280;68459;50.836;19.138;2023-03-13T14:02:15;97513.94;;;11.06;54.92
74975;BME280;68459;50.836;19.138;2023-03-13T14:05:24;97527.41;;;11.01;55.27
74975;BME280;68459;50.836;19.138;2023-03-13T14:08:32;97522.00;;;11.01;54.74
74975;BME280;68459;50.836;19.138;2023-03-13T14:11:43;97496.41;;;11.03;55.17
74975;BME280;68459;50.836;19.138;2023-03-13T14:14:47;97523.63;;;11.02;54.93
74975;BME280;68459;50.836;19.138;2023-03-13T14:17:52;97507.13;;;10.98;53.98
74975;BME280;68459;50.836;19.138;2023-03-13T14:20:59;97506.31;;;10.98;54.18
74975;BME280;68459;50.836;19.138;2023-03-13T14:24:12;97510.66;;;10.99;53.69
74975;BME280;68459;50.836;19.138;2023-03-13T14:27:18;97497.91;;;10.94;53.79
74975;BME280;68459;50.836;19.138;2023-03-13T14:30:23;97498.97;;;10.93;53.99
74975;BME280;68459;50.836;19.138;2023-03-13T14:33:28;97495.22;;;10.94;53.77
74975;BME280;68459;50.836;19.138;2023-03-13T14:36:45;97500.00;;;10.87;54.13
74975;BME280;68459;50.836;19.138;2023-03-13T14:39:49;97492.16;;;10.86;53.56
74975;BME280;68459;50.836;19.138;2023-03-13T14:42:56;97515.38;;;10.87;53.85
74975;BME280;68459;50.836;19.138;2023-03-13T14:46:13;97493.47;;;10.83;54.02
74975;BME280;68459;50.836;19.138;2023-03-13T14:49:27;97498.63;;;10.85;54.04
74975;BME280;68459;50.836;19.138;2023-03-13T14:52:33;97482.44;;;10.85;53.80
74975;BME280;68459;50.836;19.138;2023-03-13T14:55:38;97474.34;;;10.85;54.15
74975;BME280;68459;50.836;19.138;2023-03-13T14:58:44;97494.28;;;10.84;54.04
74975;BME280;68459;50.836;19.138;2023-03-13T15:01:57;97488.41;;;10.87;53.71
74975;BME280;68459;50.836;19.138;2023-03-13T15:05:04;97496.44;;;10.82;52.94
74975;BME280;68459;50.836;19.138;2023-03-13T15:08:16;97476.97;;;10.80;53.34
74975;BME280;68459;50.836;19.138;2023-03-13T15:11:27;97468.03;;;10.74;53.01
74975;BME280;68459;50.836;19.138;2023-03-13T15:14:39;97487.16;;;10.73;53.12
74975;BME280;68459;50.836;19.138;2023-03-13T15:17:44;97464.78;;;10.72;54.02
74975;BME280;68459;50.836;19.138;2023-03-13T15:20:49;97483.09;;;10.70;53.47
74975;BME280;68459;50.836;19.138;2023-03-13T15:23:58;97451.53;;;10.70;53.14
74975;BME280;68459;50.836;19.138;2023-03-13T15:27:12;97470.34;;;10.65;53.75
74975;BME280;68459;50.836;19.138;2023-03-13T15:30:21;97459.03;;;10.63;53.61
74975;BME280;68459;50.836;19.138;2023-03-13T15:33:27;97458.78;;;10.65;53.77
74975;BME280;68459;50.836;19.138;2023-03-13T15:36:32;97488.69;;;10.63;54.38
74975;BME280;68459;50.836;19.138;2023-03-13T15:39:35;97468.44;;;10.61;53.66
74975;BME280;68459;50.836;19.138;2023-03-13T15:42:39;97476.53;;;10.61;53.65
74975;BME280;68459;50.836;19.138;2023-03-13T15:45:45;97461.09;;;10.56;54.29
74975;BME280;68459;50.836;19.138;2023-03-13T15:48:52;97462.41;;;10.54;54.46
74975;BME280;68459;50.836;19.138;2023-03-13T15:51:56;97467.81;;;10.54;54.43
74975;BME280;68459;50.836;19.138;2023-03-13T15:55:00;97475.63;;;10.55;54.67
74975;BME280;68459;50.836;19.138;2023-03-13T15:58:04;97476.72;;;10.54;54.37
74975;BME280;68459;50.836;19.138;2023-03-13T16:01:10;97455.69;;;10.56;53.90
74975;BME280;68459;50.836;19.138;2023-03-13T16:04:16;97440.84;;;10.54;54.39
74975;BME280;68459;50.836;19.138;2023-03-13T16:07:20;97438.97;;;10.54;54.92
74975;BME280;68459;50.836;19.138;2023-03-13T16:10:27;97442.19;;;10.51;54.73
74975;BME280;68459;50.836;19.138;2023-03-13T16:13:31;97432.47;;;10.50;55.05
74975;BME280;68459;50.836;19.138;2023-03-13T16:16:38;97445.69;;;10.52;55.30
74975;BME280;68459;50.836;19.138;2023-03-13T16:19:42;97436.50;;;10.53;54.50
74975;BME280;68459;50.836;19.138;2023-03-13T16:22:47;97450.00;;;10.53;55.62
74975;BME280;68459;50.836;19.138;2023-03-13T16:25:54;97442.47;;;10.55;54.93
74975;BME280;68459;50.836;19.138;2023-03-13T16:28:58;97457.34;;;10.57;55.19
74975;BME280;68459;50.836;19.138;2023-03-13T16:32:04;97448.44;;;10.57;55.66
74975;BME280;68459;50.836;19.138;2023-03-13T16:35:09;97469.25;;;10.61;55.85
74975;BME280;68459;50.836;19.138;2023-03-13T16:38:12;97453.88;;;10.62;55.24
74975;BME280;68459;50.836;19.138;2023-03-13T16:41:18;97451.44;;;10.60;56.09
74975;BME280;68459;50.836;19.138;2023-03-13T16:44:23;97483.22;;;10.58;55.86
74975;BME280;68459;50.836;19.138;2023-03-13T16:47:29;97449.81;;;10.59;55.96
74975;BME280;68459;50.836;19.138;2023-03-13T16:50:36;97451.94;;;10.57;55.38